Time;durP1;ratioP1;P1;durP2;ratioP2;P2;SDS_P1;SDS_P2;PMS_P1;PMS_P2;Temp;Humidity;BMP_temperature;BMP_pressure;BME280_temperature;BME280_humidity;BME280_pressure;Samples;Min_cycle;Max_cycle;Signal;HPM_P1;HPM_P2
2021/10/13 00:00:55;;;;;;;9.68;5.10;;;;;;;;;;8196148;28;20457;-74
2021/10/13 00:05:01;;;;;;;6.70;4.30;;;;;;;;;;8203966;28;20456;-74
2021/10/13 00:09:06;;;;;;;8.77;4.70;;;;;;;;;;8193244;28;20368;-75
2021/10/13 00:13:12;;;;;;;7.00;4.10;;;;;;;;;;8194221;28;20347;-74
2021/10/13 00:17:18;;;;;;;9.02;4.38;;;;;;;;;;8178455;28;20412;-74
2021/10/13 00:21:23;;;;;;;7.35;4.22;;;;;;;;;;8194775;28;20381;-74
2021/10/13 00:25:29;;;;;;;7.53;4.50;;;;;;;;;;8209081;28;20358;-74
2021/10/13 00:29:36;;;;;;;9.25;4.55;;;;;;;;;;8194605;28;20457;-74
2021/10/13 00:33:41;;;;;;;8.98;4.20;;;;;;;;;;8196315;28;20033;-74
2021/10/13 00:37:46;;;;;;;6.95;3.85;;;;;;;;;;8194962;28;20473;-74
2021/10/13 00:41:51;;;;;;;7.32;4.50;;;;;;;;;;8195275;28;20361;-74
2021/10/13 00:45:57;;;;;;;7.80;4.65;;;;;;;;;;8194373;28;20361;-74
2021/10/13 00:50:04;;;;;;;6.95;4.10;;;;;;;;;;8194475;28;20326;-74
2021/10/13 00:54:10;;;;;;;10.50;4.60;;;;;;;;;;8194473;28;20355;-74
2021/10/13 00:58:15;;;;;;;9.65;4.88;;;;;;;;;;8192685;28;20176;-74
2021/10/13 01:02:31;;;;;;;7.93;4.68;;;;;;;;;;8193644;28;20500;-74
2021/10/13 01:07:04;;;;;;;9.82;5.20;;;;;;;;;;8192165;28;20469;-74
2021/10/13 01:11:28;;;;;;;9.70;5.18;;;;;;;;;;8194562;28;20449;-74
2021/10/13 01:16:16;;;;;;;7.43;4.53;;;;;;;;;;8177522;28;20073;-74
2021/10/13 01:20:36;;;;;;;16.08;4.78;;;;;;;;;;8193755;28;20469;-74
2021/10/13 01:25:04;;;;;;;7.05;4.47;;;;;;;;;;8193739;28;20046;-74
2021/10/13 01:29:18;;;;;;;8.43;4.37;;;;;;;;;;8192023;28;20477;-74
2021/10/13 01:33:29;;;;;;;8.02;4.88;;;;;;;;;;8191466;28;20745;-74
2021/10/13 01:37:47;;;;;;;8.30;3.95;;;;;;;;;;8191437;28;20468;-74
2021/10/13 01:41:54;;;;;;;8.65;4.03;;;;;;;;;;8192329;28;20377;-74
2021/10/13 01:46:00;;;;;;;7.85;4.22;;;;;;;;;;8190902;28;20405;-73
2021/10/13 01:50:08;;;;;;;6.70;3.78;;;;;;;;;;8192381;28;20487;-73
2021/10/13 01:54:14;;;;;;;6.22;4.03;;;;;;;;;;8191107;28;20051;-74
2021/10/13 01:58:21;;;;;;;7.78;4.00;;;;;;;;;;8181823;28;20466;-74
2021/10/13 02:02:30;;;;;;;7.00;3.90;;;;;;;;;;8190900;28;20073;-73
2021/10/13 02:06:38;;;;;;;5.38;3.72;;;;;;;;;;8189324;28;20485;-74
2021/10/13 02:10:47;;;;;;;4.82;3.13;;;;;;;;;;8191967;28;20091;-74
2021/10/13 02:14:53;;;;;;;;;;;;;;;;;;8192680;28;20350;-73
2021/10/13 02:19:03;;;;;;;5.75;3.63;;;;;;;;;;8191646;28;20229;-74
2021/10/13 02:23:10;;;;;;;6.35;3.78;;;;;;;;;;8192544;28;20576;-73
2021/10/13 02:27:24;;;;;;;7.57;3.90;;;;;;;;;;8190613;28;20046;-73
2021/10/13 02:31:30;;;;;;;4.95;3.15;;;;;;;;;;8190861;28;20476;-73
2021/10/13 02:35:35;;;;;;;6.53;3.88;;;;;;;;;;8191290;28;20100;-73
2021/10/13 02:39:40;;;;;;;6.90;3.90;;;;;;;;;;8189878;28;20063;-74
2021/10/13 02:43:45;;;;;;;9.45;4.32;;;;;;;;;;8192715;28;20050;-73
2021/10/13 02:47:59;;;;;;;5.88;3.53;;;;;;;;;;8190589;28;20149;-74
2021/10/13 02:52:25;;;;;;;5.72;3.35;;;;;;;;;;8190335;28;20404;-73
2021/10/13 02:56:35;;;;;;;7.72;4.10;;;;;;;;;;8191733;28;20450;-73
2021/10/13 03:00:41;;;;;;;6.10;3.88;;;;;;;;;;8190599;28;20038;-73
2021/10/13 03:04:51;;;;;;;7.10;4.35;;;;;;;;;;8189659;28;20385;-74
2021/10/13 03:08:57;;;;;;;7.72;4.03;;;;;;;;;;8190243;28;20042;-73
2021/10/13 03:13:04;;;;;;;9.15;3.78;;;;;;;;;;8190079;28;20441;-73
2021/10/13 03:17:10;;;;;;;6.82;3.42;;;;;;;;;;8174844;28;20389;-73
2021/10/13 03:21:16;;;;;;;6.50;3.67;;;;;;;;;;8195718;28;20392;-73
2021/10/13 03:25:32;;;;;;;4.85;2.88;;;;;;;;;;8197772;28;20330;-74
2021/10/13 03:29:41;;;;;;;5.80;3.15;;;;;;;;;;8196344;28;20453;-73
2021/10/13 03:33:52;;;;;;;6.78;3.38;;;;;;;;;;8197604;28;20050;-73
2021/10/13 03:38:01;;;;;;;8.18;3.97;;;;;;;;;;8197468;28;20376;-73
2021/10/13 03:42:07;;;;;;;10.02;4.72;;;;;;;;;;8198005;28;20472;-73
2021/10/13 03:46:21;;;;;;;7.43;3.20;;;;;;;;;;8197080;28;20058;-72
2021/10/13 03:50:26;;;;;;;4.32;3.03;;;;;;;;;;8196107;28;20357;-73
2021/10/13 03:54:31;;;;;;;7.00;3.75;;;;;;;;;;8196572;28;20349;-74
2021/10/13 03:58:36;;;;;;;5.95;3.60;;;;;;;;;;8194521;28;20354;-73
2021/10/13 04:02:42;;;;;;;11.52;4.90;;;;;;;;;;8197274;28;20380;-73
2021/10/13 04:06:47;;;;;;;7.95;3.97;;;;;;;;;;8195854;28;20367;-74
2021/10/13 04:10:53;;;;;;;7.10;3.67;;;;;;;;;;8193991;28;20485;-73
2021/10/13 04:14:58;;;;;;;5.00;2.88;;;;;;;;;;8196305;28;20520;-73
2021/10/13 04:19:04;;;;;;;7.22;4.00;;;;;;;;;;8196322;28;20492;-73
2021/10/13 04:23:09;;;;;;;6.43;3.65;;;;;;;;;;8196970;28;20473;-73
2021/10/13 04:27:14;;;;;;;6.75;4.05;;;;;;;;;;8194292;28;20511;-74
2021/10/13 04:31:19;;;;;;;7.30;3.80;;;;;;;;;;8195758;28;20068;-73
2021/10/13 04:35:25;;;;;;;6.40;3.50;;;;;;;;;;8196135;28;20361;-73
2021/10/13 04:39:30;;;;;;;6.97;4.45;;;;;;;;;;8195438;28;20473;-74
2021/10/13 04:43:35;;;;;;;10.75;3.88;;;;;;;;;;8194287;28;20406;-73
2021/10/13 04:47:40;;;;;;;6.90;3.60;;;;;;;;;;8196050;28;20350;-73
2021/10/13 04:51:45;;;;;;;10.10;2.97;;;;;;;;;;8195186;28;20056;-73
2021/10/13 04:55:50;;;;;;;7.55;3.33;;;;;;;;;;8197419;28;20345;-73
2021/10/13 04:59:56;;;;;;;6.20;3.40;;;;;;;;;;8193309;28;20453;-73
2021/10/13 05:04:01;;;;;;;11.25;2.67;;;;;;;;;;8193868;28;20441;-73
2021/10/13 05:08:06;;;;;;;8.25;3.63;;;;;;;;;;8193597;28;20112;-74
2021/10/13 05:12:12;;;;;;;6.32;3.53;;;;;;;;;;8194925;28;20401;-73
2021/10/13 05:16:17;;;;;;;6.72;3.67;;;;;;;;;;8193825;28;20049;-73
2021/10/13 05:20:22;;;;;;;6.88;3.95;;;;;;;;;;8194420;28;20363;-73
2021/10/13 05:24:27;;;;;;;6.45;3.67;;;;;;;;;;8192948;28;20473;-73
2021/10/13 05:28:32;;;;;;;5.30;3.33;;;;;;;;;;8193453;28;20346;-73
2021/10/13 05:32:41;;;;;;;;;;;;;;;;;;8195957;28;20050;-73
2021/10/13 05:36:46;;;;;;;5.38;3.20;;;;;;;;;;8207731;28;20233;-72
2021/10/13 05:40:51;;;;;;;7.68;3.92;;;;;;;;;;8192739;28;20400;-73
2021/10/13 05:44:56;;;;;;;6.28;3.53;;;;;;;;;;8177220;28;20373;-73
2021/10/13 05:49:01;;;;;;;7.75;3.80;;;;;;;;;;8193087;28;20457;-73
2021/10/13 05:53:07;;;;;;;5.10;2.83;;;;;;;;;;8192942;28;20413;-73
2021/10/13 05:57:19;;;;;;;7.95;2.95;;;;;;;;;;8208301;28;20369;-74
2021/10/13 06:01:24;;;;;;;10.00;2.90;;;;;;;;;;8191964;28;20364;-73
2021/10/13 06:05:29;;;;;;;8.43;3.47;;;;;;;;;;8191797;28;20425;-73
2021/10/13 06:09:33;;;;;;;7.97;3.15;;;;;;;;;;8192292;28;20445;-73
2021/10/13 06:13:39;;;;;;;7.03;3.10;;;;;;;;;;8191936;28;20037;-73
2021/10/13 06:17:44;;;;;;;6.60;4.05;;;;;;;;;;8190277;28;20349;-72
2021/10/13 06:21:49;;;;;;;5.35;3.05;;;;;;;;;;8207445;28;20468;-73
2021/10/13 06:25:54;;;;;;;8.63;3.90;;;;;;;;;;8191196;28;20465;-73
2021/10/13 06:30:00;;;;;;;9.50;3.88;;;;;;;;;;8192280;28;20488;-73
2021/10/13 06:34:05;;;;;;;6.28;4.00;;;;;;;;;;8192235;28;20357;-73
2021/10/13 06:38:10;;;;;;;13.57;3.83;;;;;;;;;;8207548;28;20064;-73
2021/10/13 06:42:15;;;;;;;6.13;3.30;;;;;;;;;;8191220;28;20037;-73
2021/10/13 06:46:20;;;;;;;6.30;3.50;;;;;;;;;;8191699;28;20489;-74
2021/10/13 06:50:25;;;;;;;7.63;4.20;;;;;;;;;;8125820;28;20384;-73
2021/10/13 06:54:30;;;;;;;8.27;3.97;;;;;;;;;;8196969;28;20416;-74
2021/10/13 06:58:35;;;;;;;10.50;4.93;;;;;;;;;;8197144;28;20405;-73
2021/10/13 07:02:41;;;;;;;5.20;2.90;;;;;;;;;;8200358;28;20489;-73
2021/10/13 07:06:46;;;;;;;5.28;2.60;;;;;;;;;;8197013;28;20366;-73
2021/10/13 07:10:51;;;;;;;9.35;3.75;;;;;;;;;;8199940;28;20046;-74
2021/10/13 07:14:56;;;;;;;10.13;6.88;;;;;;;;;;8196538;28;20374;-73
2021/10/13 07:19:02;;;;;;;7.05;4.32;;;;;;;;;;8198325;28;20038;-73
2021/10/13 07:23:07;;;;;;;6.38;2.65;;;;;;;;;;8176572;28;20073;-74
2021/10/13 07:27:13;;;;;;;10.10;3.88;;;;;;;;;;8195469;28;20461;-73
2021/10/13 07:31:18;;;;;;;10.63;5.10;;;;;;;;;;8199275;28;20453;-73
2021/10/13 07:35:27;;;;;;;39.45;12.57;;;;;;;;;;8197381;28;20482;-72
2021/10/13 07:39:32;;;;;;;33.42;10.50;;;;;;;;;;8213205;28;20477;-73
2021/10/13 07:43:38;;;;;;;9.13;2.80;;;;;;;;;;8197440;28;20388;-73
2021/10/13 07:47:43;;;;;;;3.05;1.73;;;;;;;;;;8199397;28;20839;-74
2021/10/13 07:51:48;;;;;;;9.50;4.53;;;;;;;;;;8197453;28;20476;-72
2021/10/13 07:55:54;;;;;;;3.55;1.80;;;;;;;;;;8196397;28;20457;-74
2021/10/13 07:59:59;;;;;;;12.45;5.10;;;;;;;;;;8197449;28;20512;-73
2021/10/13 08:04:07;;;;;;;8.60;3.90;;;;;;;;;;8195384;28;20386;-74
2021/10/13 08:08:12;;;;;;;11.27;6.25;;;;;;;;;;8195844;28;20453;-73
2021/10/13 08:12:18;;;;;;;10.07;5.03;;;;;;;;;;8194077;28;20527;-73
2021/10/13 08:16:23;;;;;;;6.60;4.38;;;;;;;;;;8179917;28;20365;-73
2021/10/13 08:20:29;;;;;;;9.20;3.33;;;;;;;;;;8211267;28;20108;-74
2021/10/13 08:24:35;;;;;;;8.98;3.90;;;;;;;;;;8195314;28;20064;-73
2021/10/13 08:28:42;;;;;;;11.63;4.18;;;;;;;;;;8195335;28;20453;-73
2021/10/13 08:32:48;;;;;;;8.43;3.65;;;;;;;;;;8195985;28;20389;-73
2021/10/13 08:36:53;;;;;;;5.80;2.85;;;;;;;;;;8196972;28;20370;-73
2021/10/13 08:40:58;;;;;;;6.60;3.00;;;;;;;;;;8194424;28;20049;-74
2021/10/13 08:45:05;;;;;;;3.47;2.10;;;;;;;;;;8196864;28;20060;-73
2021/10/13 08:49:10;;;;;;;5.15;2.08;;;;;;;;;;8194010;28;20045;-73
2021/10/13 08:53:20;;;;;;;4.22;2.67;;;;;;;;;;8194834;28;20057;-74
2021/10/13 08:57:30;;;;;;;16.60;5.60;;;;;;;;;;8177855;28;20465;-74
2021/10/13 09:01:34;;;;;;;13.10;6.10;;;;;;;;;;8193147;28;20453;-74
2021/10/13 09:05:44;;;;;;;17.48;7.88;;;;;;;;;;8192584;28;20068;-73
2021/10/13 09:09:49;;;;;;;27.20;8.80;;;;;;;;;;8176835;28;20473;-73
2021/10/13 09:14:13;;;;;;;26.75;8.57;;;;;;;;;;8194377;28;20045;-73
2021/10/13 09:18:25;;;;;;;37.72;10.57;;;;;;;;;;8136994;28;20501;-73
2021/10/13 09:22:31;;;;;;;25.15;7.10;;;;;;;;;;8146039;28;20439;-73
2021/10/13 09:26:36;;;;;;;47.55;12.75;;;;;;;;;;8162361;28;20462;-73
2021/10/13 09:30:42;;;;;;;39.00;10.30;;;;;;;;;;8161957;28;20394;-73
2021/10/13 09:34:52;;;;;;;14.30;6.22;;;;;;;;;;8146499;28;20446;-74
2021/10/13 09:38:57;;;;;;;17.58;6.93;;;;;;;;;;8162616;28;20385;-73
2021/10/13 09:43:03;;;;;;;15.88;7.82;;;;;;;;;;8162442;28;20460;-73
2021/10/13 09:47:14;;;;;;;11.65;4.18;;;;;;;;;;8144164;28;20377;-73
2021/10/13 09:51:25;;;;;;;10.63;5.28;;;;;;;;;;8143698;28;20370;-74
2021/10/13 09:55:37;;;;;;;10.73;5.60;;;;;;;;;;8144278;28;20390;-73
2021/10/13 10:00:16;;;;;;;7.03;3.38;;;;;;;;;;8126659;28;20489;-72
2021/10/13 10:04:26;;;;;;;5.90;2.88;;;;;;;;;;8124208;28;20409;-73
2021/10/13 10:08:57;;;;;;;5.68;3.20;;;;;;;;;;8126784;28;20455;-74
2021/10/13 10:13:09;;;;;;;5.90;2.33;;;;;;;;;;8129386;28;20394;-73
2021/10/13 10:17:39;;;;;;;5.95;3.70;;;;;;;;;;8128303;28;20391;-73
2021/10/13 10:21:58;;;;;;;7.03;3.55;;;;;;;;;;8130762;28;20489;-73
2021/10/13 10:26:30;;;;;;;3.40;1.80;;;;;;;;;;8127814;28;20374;-73
2021/10/13 10:30:36;;;;;;;4.35;1.40;;;;;;;;;;8127781;28;20455;-72
2021/10/13 10:35:06;;;;;;;5.57;2.45;;;;;;;;;;8128513;28;20046;-73
2021/10/13 10:39:15;;;;;;;6.07;2.55;;;;;;;;;;8128187;28;20378;-73
2021/10/13 10:43:28;;;;;;;6.97;2.50;;;;;;;;;;8128316;28;20401;-73
2021/10/13 10:47:50;;;;;;;4.43;3.10;;;;;;;;;;8128465;28;20492;-74
2021/10/13 10:52:05;;;;;;;2.63;1.70;;;;;;;;;;8126963;28;20378;-74
2021/10/13 10:56:10;;;;;;;5.47;2.40;;;;;;;;;;8127162;28;20378;-72
2021/10/13 11:00:24;;;;;;;5.30;2.35;;;;;;;;;;8129112;28;20369;-73
2021/10/13 11:04:31;;;;;;;4.10;2.90;;;;;;;;;;8128913;28;20050;-73
2021/10/13 11:09:04;;;;;;;5.53;2.97;;;;;;;;;;8128452;28;20347;-73
2021/10/13 11:13:10;;;;;;;8.18;3.95;;;;;;;;;;8128615;28;20474;-73
2021/10/13 11:17:25;;;;;;;7.18;2.97;;;;;;;;;;8126800;28;20054;-73
2021/10/13 11:21:31;;;;;;;5.18;2.70;;;;;;;;;;8111481;28;20459;-72
2021/10/13 11:25:37;;;;;;;4.07;2.58;;;;;;;;;;8126958;28;20468;-73
2021/10/13 11:29:47;;;;;;;4.47;2.20;;;;;;;;;;8128785;28;20343;-72
2021/10/13 11:34:06;;;;;;;5.72;4.10;;;;;;;;;;8126805;28;20355;-73
2021/10/13 11:38:20;;;;;;;4.30;2.45;;;;;;;;;;8128069;28;20601;-73
2021/10/13 11:42:28;;;;;;;4.32;2.47;;;;;;;;;;8133522;28;20492;-72
2021/10/13 11:46:33;;;;;;;4.28;2.55;;;;;;;;;;8133810;28;20378;-73
2021/10/13 11:50:41;;;;;;;13.80;6.97;;;;;;;;;;8133957;28;20471;-73
2021/10/13 11:54:46;;;;;;;5.23;3.30;;;;;;;;;;8132935;28;20453;-72
2021/10/13 11:58:51;;;;;;;6.22;2.55;;;;;;;;;;8134928;28;20446;-72
2021/10/13 12:03:12;;;;;;;3.97;2.00;;;;;;;;;;8133334;28;20465;-73
2021/10/13 12:07:23;;;;;;;3.67;2.47;;;;;;;;;;8146934;28;20054;-73
2021/10/13 12:11:38;;;;;;;3.95;2.13;;;;;;;;;;7938878;28;20478;-73
2021/10/13 12:15:47;;;;;;;3.90;2.45;;;;;;;;;;8226230;28;20481;-72
2021/10/13 12:19:53;;;;;;;5.95;3.15;;;;;;;;;;8212151;28;20067;-73
2021/10/13 12:24:08;;;;;;;4.30;2.63;;;;;;;;;;8211300;28;20045;-73
2021/10/13 12:28:21;;;;;;;6.22;3.50;;;;;;;;;;8227908;28;20476;-74
2021/10/13 12:32:28;;;;;;;6.97;3.78;;;;;;;;;;8211177;28;20357;-73
2021/10/13 12:36:51;;;;;;;6.35;3.45;;;;;;;;;;8226401;28;20684;-72
2021/10/13 12:41:06;;;;;;;4.63;2.70;;;;;;;;;;8225861;28;20472;-73
2021/10/13 12:45:11;;;;;;;31.27;5.63;;;;;;;;;;8177186;28;20500;-73
2021/10/13 12:49:19;;;;;;;4.78;3.00;;;;;;;;;;8226387;28;20457;-73
2021/10/13 12:53:25;;;;;;;11.57;4.55;;;;;;;;;;8209274;28;20444;-74
2021/10/13 12:57:32;;;;;;;10.57;4.55;;;;;;;;;;8209758;28;20373;-73
2021/10/13 13:01:38;;;;;;;9.55;3.45;;;;;;;;;;8211198;28;20433;-74
2021/10/13 13:05:43;;;;;;;6.93;2.90;;;;;;;;;;8227222;28;20460;-74
2021/10/13 13:09:47;;;;;;;5.57;2.58;;;;;;;;;;8228407;28;20457;-73
2021/10/13 13:13:52;;;;;;;5.68;2.47;;;;;;;;;;8228106;28;20475;-74
2021/10/13 13:17:57;;;;;;;5.30;2.40;;;;;;;;;;8209156;28;20368;-73
2021/10/13 13:22:02;;;;;;;5.88;3.17;;;;;;;;;;8226478;28;20334;-73
2021/10/13 13:26:08;;;;;;;5.97;3.05;;;;;;;;;;8208341;28;20356;-73
2021/10/13 13:30:13;;;;;;;2.67;2.00;;;;;;;;;;8226012;28;20403;-74
2021/10/13 13:34:18;;;;;;;8.48;4.53;;;;;;;;;;8226721;28;20371;-73
2021/10/13 13:38:23;;;;;;;6.20;2.88;;;;;;;;;;8224923;28;20497;-73
2021/10/13 13:42:29;;;;;;;5.20;2.60;;;;;;;;;;8207824;28;20042;-73
2021/10/13 13:46:34;;;;;;;6.93;3.08;;;;;;;;;;8191788;28;20472;-74
2021/10/13 13:50:39;;;;;;;5.43;3.00;;;;;;;;;;8226300;28;20467;-73
2021/10/13 13:54:44;;;;;;;7.53;3.20;;;;;;;;;;8208379;28;20464;-73
2021/10/13 13:58:50;;;;;;;5.05;2.50;;;;;;;;;;8206972;28;20461;-73
2021/10/13 14:02:55;;;;;;;8.73;4.13;;;;;;;;;;8207482;28;20483;-73
2021/10/13 14:07:01;;;;;;;11.00;4.20;;;;;;;;;;8206437;28;20046;-73
2021/10/13 14:11:06;;;;;;;5.82;2.50;;;;;;;;;;8226055;28;20452;-73
2021/10/13 14:15:12;;;;;;;12.88;3.90;;;;;;;;;;8224743;28;20376;-72
2021/10/13 14:19:17;;;;;;;3.92;2.13;;;;;;;;;;8207765;28;20371;-73
2021/10/13 14:23:22;;;;;;;5.65;2.97;;;;;;;;;;8224356;28;20496;-73
2021/10/13 14:27:27;;;;;;;5.50;3.17;;;;;;;;;;8207487;28;20480;-73
2021/10/13 14:31:33;;;;;;;16.60;6.15;;;;;;;;;;8225604;28;20357;-73
2021/10/13 14:35:38;;;;;;;21.70;6.72;;;;;;;;;;8224646;28;20361;-73
2021/10/13 14:39:48;;;;;;;19.05;6.13;;;;;;;;;;8208328;28;20068;-74
2021/10/13 14:43:53;;;;;;;17.23;7.07;;;;;;;;;;8206597;28;20356;-73
2021/10/13 14:47:59;;;;;;;9.65;5.13;;;;;;;;;;8224848;28;20481;-73
2021/10/13 14:52:04;;;;;;;9.85;4.65;;;;;;;;;;8223922;28;20453;-74
2021/10/13 14:56:10;;;;;;;10.93;5.13;;;;;;;;;;8206549;28;20469;-73
2021/10/13 15:00:15;;;;;;;16.88;6.25;;;;;;;;;;8223263;28;20385;-73
2021/10/13 15:04:22;;;;;;;31.10;9.77;;;;;;;;;;8224408;28;20412;-73
2021/10/13 15:08:28;;;;;;;20.77;9.77;;;;;;;;;;8191192;28;20465;-73
2021/10/13 15:12:34;;;;;;;21.40;8.60;;;;;;;;;;8194006;28;20473;-73
2021/10/13 15:16:42;;;;;;;16.02;7.97;;;;;;;;;;8197648;28;20062;-73
2021/10/13 15:20:48;;;;;;;68.90;21.98;;;;;;;;;;8195778;28;20473;-73
2021/10/13 15:24:54;;;;;;;89.82;32.90;;;;;;;;;;8198134;28;20465;-73
2021/10/13 15:28:59;;;;;;;73.53;28.00;;;;;;;;;;8195422;28;20393;-73
2021/10/13 15:33:07;;;;;;;60.72;19.55;;;;;;;;;;8213473;28;20465;-74
2021/10/13 15:37:14;;;;;;;81.90;24.87;;;;;;;;;;8197236;28;20084;-73
2021/10/13 15:41:19;;;;;;;79.40;24.63;;;;;;;;;;8196120;28;20092;-74
2021/10/13 15:45:24;;;;;;;69.63;23.85;;;;;;;;;;8211660;28;20481;-73
2021/10/13 15:49:33;;;;;;;72.32;26.10;;;;;;;;;;8197942;28;20116;-73
2021/10/13 15:53:38;;;;;;;80.82;31.80;;;;;;;;;;8197304;28;20377;-73
2021/10/13 15:57:43;;;;;;;65.45;31.20;;;;;;;;;;8195104;28;20457;-74
2021/10/13 16:01:48;;;;;;;106.68;44.58;;;;;;;;;;8194944;28;20346;-73
2021/10/13 16:05:54;;;;;;;129.02;53.03;;;;;;;;;;8201019;28;20367;-73
2021/10/13 16:10:01;;;;;;;110.80;44.15;;;;;;;;;;8230472;28;20337;-73
2021/10/13 16:14:07;;;;;;;416.00;152.23;;;;;;;;;;8228850;28;20457;-73
2021/10/13 16:18:12;;;;;;;123.25;49.80;;;;;;;;;;8228375;28;20505;-73
2021/10/13 16:22:18;;;;;;;77.32;33.10;;;;;;;;;;8210268;28;20400;-73
2021/10/13 16:26:23;;;;;;;78.32;34.10;;;;;;;;;;8209475;28;20389;-73
2021/10/13 16:30:29;;;;;;;49.80;22.98;;;;;;;;;;8227440;28;20487;-73
2021/10/13 16:34:34;;;;;;;49.67;19.65;;;;;;;;;;8210327;28;20049;-73
2021/10/13 16:38:40;;;;;;;52.92;18.52;;;;;;;;;;8189153;28;20480;-74
2021/10/13 16:42:46;;;;;;;47.70;18.92;;;;;;;;;;8227950;28;20491;-73
2021/10/13 16:46:51;;;;;;;82.95;28.45;;;;;;;;;;8210766;28;20495;-73
2021/10/13 16:50:56;;;;;;;59.47;20.27;;;;;;;;;;8228664;28;20468;-73
2021/10/13 16:55:03;;;;;;;56.47;21.27;;;;;;;;;;8227250;28;20473;-74
2021/10/13 16:59:08;;;;;;;91.47;35.95;;;;;;;;;;8209295;28;20469;-74
2021/10/13 17:03:13;;;;;;;51.78;21.48;;;;;;;;;;8209906;28;20088;-74
2021/10/13 17:07:18;;;;;;;61.40;24.15;;;;;;;;;;8226258;28;20473;-74
2021/10/13 17:11:24;;;;;;;47.13;18.38;;;;;;;;;;8192697;28;20445;-74
2021/10/13 17:15:29;;;;;;;42.78;19.50;;;;;;;;;;8226542;28;20045;-73
2021/10/13 17:19:34;;;;;;;30.02;11.35;;;;;;;;;;8208837;28;20465;-74
2021/10/13 17:23:39;;;;;;;27.02;12.05;;;;;;;;;;8226770;28;20046;-74
2021/10/13 17:27:45;;;;;;;36.03;14.00;;;;;;;;;;8210515;28;20480;-74
2021/10/13 17:31:50;;;;;;;30.40;12.57;;;;;;;;;;8226621;28;20344;-73
2021/10/13 17:35:55;;;;;;;31.33;14.05;;;;;;;;;;8227846;28;20341;-74
2021/10/13 17:40:01;;;;;;;36.80;14.90;;;;;;;;;;8226896;28;20037;-74
2021/10/13 17:44:06;;;;;;;38.95;12.82;;;;;;;;;;8226169;28;20460;-73
2021/10/13 17:48:11;;;;;;;28.35;11.10;;;;;;;;;;8225997;28;20068;-74
2021/10/13 17:52:21;;;;;;;32.50;14.77;;;;;;;;;;8224161;28;20060;-74
2021/10/13 17:56:26;;;;;;;39.45;15.95;;;;;;;;;;8225186;28;20369;-74
2021/10/13 18:00:31;;;;;;;36.60;15.35;;;;;;;;;;8208362;28;20638;-73
2021/10/13 18:04:40;;;;;;;31.25;13.80;;;;;;;;;;8209121;28;20333;-73
2021/10/13 18:08:45;;;;;;;24.17;11.38;;;;;;;;;;8207452;28;20358;-73
2021/10/13 18:12:50;;;;;;;20.25;10.35;;;;;;;;;;8191303;28;20357;-73
2021/10/13 18:16:56;;;;;;;34.85;12.63;;;;;;;;;;8193474;28;20475;-74
2021/10/13 18:21:01;;;;;;;35.33;13.68;;;;;;;;;;8207483;28;20354;-76
2021/10/13 18:25:08;;;;;;;31.58;13.43;;;;;;;;;;8192663;28;20373;-73
2021/10/13 18:29:13;;;;;;;25.75;11.55;;;;;;;;;;8206884;28;20391;-74
2021/10/13 18:33:19;;;;;;;27.52;11.60;;;;;;;;;;8193098;28;20338;-73
2021/10/13 18:37:25;;;;;;;31.95;12.70;;;;;;;;;;8191115;28;20415;-74
2021/10/13 18:41:30;;;;;;;29.58;13.18;;;;;;;;;;8190560;28;20326;-74
2021/10/13 18:45:35;;;;;;;43.83;17.45;;;;;;;;;;8192514;28;20453;-74
2021/10/13 18:49:40;;;;;;;73.70;33.53;;;;;;;;;;8195616;28;20380;-73
2021/10/13 18:53:46;;;;;;;98.55;37.60;;;;;;;;;;8212660;28;20347;-73
2021/10/13 18:57:51;;;;;;;58.85;23.63;;;;;;;;;;8198449;28;20491;-73
2021/10/13 19:01:57;;;;;;;58.72;21.83;;;;;;;;;;8199267;28;20388;-73
2021/10/13 19:06:06;;;;;;;73.88;28.73;;;;;;;;;;8203119;28;20506;-73
2021/10/13 19:10:11;;;;;;;72.75;32.17;;;;;;;;;;8213234;28;20365;-73
2021/10/13 19:14:17;;;;;;;73.07;27.98;;;;;;;;;;8213017;28;20379;-74
2021/10/13 19:18:22;;;;;;;91.65;34.63;;;;;;;;;;8228537;28;20483;-73
2021/10/13 19:22:28;;;;;;;99.95;41.80;;;;;;;;;;8230301;28;20406;-73
2021/10/13 19:26:36;;;;;;;83.63;36.35;;;;;;;;;;8231450;28;20353;-74
2021/10/13 19:30:42;;;;;;;82.25;33.05;;;;;;;;;;8229522;28;20476;-73
2021/10/13 19:34:47;;;;;;;100.78;42.72;;;;;;;;;;8228343;28;20385;-73
2021/10/13 19:38:54;;;;;;;108.47;43.90;;;;;;;;;;8230352;28;20479;-73
2021/10/13 19:42:58;;;;;;;113.85;44.45;;;;;;;;;;8195245;28;20481;-73
2021/10/13 19:47:03;;;;;;;114.50;43.50;;;;;;;;;;8211518;28;20099;-73
2021/10/13 19:51:09;;;;;;;88.88;32.50;;;;;;;;;;8229578;28;20570;-73
2021/10/13 19:55:14;;;;;;;74.00;31.05;;;;;;;;;;8230157;28;20372;-73
2021/10/13 19:59:20;;;;;;;77.63;31.05;;;;;;;;;;8227314;28;20045;-73
2021/10/13 20:03:25;;;;;;;74.97;31.80;;;;;;;;;;8229306;28;20461;-73
2021/10/13 20:07:30;;;;;;;89.13;35.42;;;;;;;;;;8180985;28;20396;-73
2021/10/13 20:11:35;;;;;;;92.88;37.25;;;;;;;;;;8197452;28;20393;-73
2021/10/13 20:15:40;;;;;;;112.60;41.25;;;;;;;;;;8178963;28;20477;-73
2021/10/13 20:19:47;;;;;;;111.40;41.28;;;;;;;;;;8196213;28;20050;-73
2021/10/13 20:23:52;;;;;;;124.80;45.10;;;;;;;;;;8195858;28;20499;-73
2021/10/13 20:27:57;;;;;;;112.80;45.35;;;;;;;;;;8210399;28;20072;-73
2021/10/13 20:32:05;;;;;;;120.05;45.50;;;;;;;;;;8193790;28;20465;-73
2021/10/13 20:36:09;;;;;;;136.70;47.55;;;;;;;;;;8197481;28;20523;-73
2021/10/13 20:40:16;;;;;;;153.63;58.78;;;;;;;;;;8196454;28;20067;-73
2021/10/13 20:44:21;;;;;;;170.18;65.53;;;;;;;;;;8194517;28;20457;-73
2021/10/13 20:48:26;;;;;;;142.90;55.00;;;;;;;;;;8196745;28;20450;-73
2021/10/13 20:52:32;;;;;;;125.03;47.78;;;;;;;;;;8195947;28;20483;-72
2021/10/13 20:56:38;;;;;;;125.82;49.92;;;;;;;;;;8194774;28;20381;-73
2021/10/13 21:00:43;;;;;;;132.23;51.42;;;;;;;;;;8195364;28;20484;-73
2021/10/13 21:04:49;;;;;;;133.27;49.28;;;;;;;;;;8195298;28;20488;-73
2021/10/13 21:08:55;;;;;;;127.35;50.90;;;;;;;;;;8193843;28;20077;-73
2021/10/13 21:13:02;;;;;;;139.48;52.67;;;;;;;;;;8194692;28;20437;-72
2021/10/13 21:17:07;;;;;;;134.55;50.83;;;;;;;;;;8194662;28;20041;-73
2021/10/13 21:21:13;;;;;;;144.82;52.35;;;;;;;;;;8177482;28;20373;-74
2021/10/13 21:25:18;;;;;;;140.60;56.13;;;;;;;;;;8192334;28;20556;-73
2021/10/13 21:29:23;;;;;;;142.82;52.20;;;;;;;;;;8193464;28;20057;-73
2021/10/13 21:33:28;;;;;;;142.38;52.78;;;;;;;;;;8194765;28;20096;-73
2021/10/13 21:37:34;;;;;;;142.38;55.20;;;;;;;;;;8193650;28;20469;-73
2021/10/13 21:41:39;;;;;;;139.68;54.72;;;;;;;;;;8177743;28;20072;-73
2021/10/13 21:45:44;;;;;;;139.68;55.28;;;;;;;;;;8191656;28;20535;-73
2021/10/13 21:49:49;;;;;;;139.77;57.95;;;;;;;;;;8208286;28;20356;-73
2021/10/13 21:53:55;;;;;;;115.65;45.70;;;;;;;;;;8192003;28;20374;-73
2021/10/13 21:58:00;;;;;;;118.65;46.78;;;;;;;;;;8193564;28;20370;-73
2021/10/13 22:02:07;;;;;;;222.27;66.82;;;;;;;;;;8191825;28;20389;-73
2021/10/13 22:06:12;;;;;;;154.85;50.42;;;;;;;;;;8198816;28;20460;-73
2021/10/13 22:10:18;;;;;;;110.18;40.13;;;;;;;;;;8224796;28;20460;-72
2021/10/13 22:14:23;;;;;;;120.22;41.17;;;;;;;;;;8208084;28;20461;-73
2021/10/13 22:18:28;;;;;;;95.95;34.10;;;;;;;;;;8207576;28;20472;-72
2021/10/13 22:22:33;;;;;;;105.35;35.97;;;;;;;;;;8206616;28;20095;-74
2021/10/13 22:26:39;;;;;;;85.47;31.95;;;;;;;;;;8207499;28;20038;-73
2021/10/13 22:30:44;;;;;;;87.97;29.55;;;;;;;;;;8224328;28;20449;-73
2021/10/13 22:34:49;;;;;;;88.78;33.65;;;;;;;;;;8226655;28;20104;-73
2021/10/13 22:38:54;;;;;;;102.05;37.75;;;;;;;;;;8224650;28;20049;-72
2021/10/13 22:42:59;;;;;;;119.38;40.70;;;;;;;;;;8225070;28;20108;-73
2021/10/13 22:47:04;;;;;;;224.43;57.97;;;;;;;;;;8224719;28;20064;-73
2021/10/13 22:51:11;;;;;;;194.93;54.45;;;;;;;;;;8225938;28;20498;-73
2021/10/13 22:55:19;;;;;;;145.05;48.78;;;;;;;;;;8191287;28;20346;-73
2021/10/13 22:59:24;;;;;;;160.35;51.95;;;;;;;;;;8207376;28;20049;-73
2021/10/13 23:03:29;;;;;;;157.60;54.53;;;;;;;;;;8226125;28;20459;-73
2021/10/13 23:07:34;;;;;;;154.25;47.17;;;;;;;;;;8223933;28;20372;-73
2021/10/13 23:11:39;;;;;;;133.93;47.10;;;;;;;;;;8206989;28;20045;-73
2021/10/13 23:15:44;;;;;;;139.95;46.63;;;;;;;;;;8206739;28;20404;-73
2021/10/13 23:19:50;;;;;;;132.48;47.00;;;;;;;;;;8222927;28;20461;-74
2021/10/13 23:23:55;;;;;;;124.20;40.38;;;;;;;;;;8224197;28;20053;-73
2021/10/13 23:28:00;;;;;;;154.80;47.78;;;;;;;;;;8208037;28;20326;-73
2021/10/13 23:32:06;;;;;;;118.78;38.28;;;;;;;;;;8206982;28;20604;-73
2021/10/13 23:36:11;;;;;;;77.20;27.40;;;;;;;;;;8228231;28;20053;-73
2021/10/13 23:40:16;;;;;;;61.17;20.38;;;;;;;;;;8228128;28;20465;-73
2021/10/13 23:44:21;;;;;;;96.55;26.58;;;;;;;;;;8213251;28;20468;-73
2021/10/13 23:48:27;;;;;;;79.00;22.23;;;;;;;;;;8229397;28;20477;-73
2021/10/13 23:52:32;;;;;;;69.25;23.58;;;;;;;;;;8213005;28;20456;-73
2021/10/13 23:56:37;;;;;;;108.78;31.10;;;;;;;;;;8195627;28;20476;-73
